Etusivu
METAR-TAF:

METAR-TAF

Lentoasemat :

Teheran, Iran

Leveyspiiri: 35-41N, Pituuspiiri: 051-21E, korkeus merenpinnasta: 1204 m

Tämänhetkinen sää

Tämä raportti tehtiin 32 minuuttia sitten, kello 11.00 UTC
Tuuli 6 kn etelästä
Lämpötila 18°C
Kosteus 22%
Ilmanpaine 1018 hPa
Näkyvyys: 6000 m
Muutamia pilviä 10000 ft:n korkeudessa
Hajonneita pilviä 19000 ft:n korkeudessa

METAR: OIII 191100Z 19006KT 6000 FEW100 BKN190 18/M04 Q1017 A3006 NOSIG

Aika: 16:02 (11:32 UTC)

Sääennuste

Tämä raportti tehtiin 6 tuntia ja 22 minuuttia sitten, kello 05.10 UTC
Ennuste voimassa 19. päivästä klo 06 UTC - 20. päivään klo 12 UTC
Tuuli 8 kn lännestä
Näkyvyys: 7000 m

TAF: OIII 190510Z 1906/2012 26004MPS 7000 NSC

Säähavainnot ja -ennusteet yli 4000 lentoasemalta (METAR- ja TAF-raportit).

Käytössä olevat sääasemat on merkitty karttaan keltaisilla ja punaisilla pisteillä.

Aseta hiiri pisteen päälle nähdäksesi sääaseman nimen.

Klikkaa sitten nähdäksesi säähavainnot ja -ennusteet.

Kartan vaihtaminen: klikkaa mustalla rastilla varustettuja vihreitä pisteitä, niin voit zoomata sisään; viivalla varustettua vihreää pistettä, niin voit zoomata ulos tai vihreitä nuolia, niin pääset viereisille kartoille.


METAR-TAF: